sensor_id;sensor_type;location;lat;lon;timestamp;temperature;humidity
75824;DHT22;64457;51.976;9.834;2023-06-05T00:00:16;15.70;64.10
75824;DHT22;64457;51.976;9.834;2023-06-05T00:02:44;15.80;63.60
75824;DHT22;64457;51.976;9.834;2023-06-05T00:05:13;15.70;64.60
75824;DHT22;64457;51.976;9.834;2023-06-05T00:07:41;15.70;65.50
75824;DHT22;64457;51.976;9.834;2023-06-05T00:10:09;15.50;65.20
75824;DHT22;64457;51.976;9.834;2023-06-05T00:12:37;15.40;65.60
75824;DHT22;64457;51.976;9.834;2023-06-05T00:15:06;15.30;66.00
75824;DHT22;64457;51.976;9.834;2023-06-05T00:17:37;15.30;64.80
75824;DHT22;64457;51.976;9.834;2023-06-05T00:20:07;15.30;65.00
75824;DHT22;64457;51.976;9.834;2023-06-05T00:22:36;15.30;65.60
75824;DHT22;64457;51.976;9.834;2023-06-05T00:25:05;15.20;65.60
75824;DHT22;64457;51.976;9.834;2023-06-05T00:27:34;15.10;66.00
75824;DHT22;64457;51.976;9.834;2023-06-05T00:30:02;14.90;67.00
75824;DHT22;64457;51.976;9.834;2023-06-05T00:32:30;14.90;67.80
75824;DHT22;64457;51.976;9.834;2023-06-05T00:34:59;14.90;69.20
75824;DHT22;64457;51.976;9.834;2023-06-05T00:37:28;14.60;72.00
75824;DHT22;64457;51.976;9.834;2023-06-05T00:39:57;14.50;72.20
75824;DHT22;64457;51.976;9.834;2023-06-05T00:42:27;14.70;72.00
75824;DHT22;64457;51.976;9.834;2023-06-05T00:44:55;14.90;70.70
75824;DHT22;64457;51.976;9.834;2023-06-05T00:47:23;15.00;70.10
75824;DHT22;64457;51.976;9.834;2023-06-05T00:49:51;15.00;69.10
75824;DHT22;64457;51.976;9.834;2023-06-05T00:52:22;15.00;68.80
75824;DHT22;64457;51.976;9.834;2023-06-05T00:54:50;15.00;69.80
75824;DHT22;64457;51.976;9.834;2023-06-05T00:57:18;15.00;70.40
75824;DHT22;64457;51.976;9.834;2023-06-05T00:59:50;15.00;69.30
75824;DHT22;64457;51.976;9.834;2023-06-05T01:02:19;14.90;68.80
75824;DHT22;64457;51.976;9.834;2023-06-05T01:04:47;14.90;69.00
75824;DHT22;64457;51.976;9.834;2023-06-05T01:07:15;15.00;69.00
75824;DHT22;64457;51.976;9.834;2023-06-05T01:09:47;14.90;69.00
75824;DHT22;64457;51.976;9.834;2023-06-05T01:12:20;14.90;69.30
75824;DHT22;64457;51.976;9.834;2023-06-05T01:14:56;14.80;71.40
75824;DHT22;64457;51.976;9.834;2023-06-05T01:17:25;14.70;70.10
75824;DHT22;64457;51.976;9.834;2023-06-05T01:19:55;14.70;70.40
75824;DHT22;64457;51.976;9.834;2023-06-05T01:22:26;14.70;70.10
75824;DHT22;64457;51.976;9.834;2023-06-05T01:25:00;14.60;70.90
75824;DHT22;64457;51.976;9.834;2023-06-05T01:27:35;14.60;70.70
75824;DHT22;64457;51.976;9.834;2023-06-05T01:30:32;14.70;70.90
75824;DHT22;64457;51.976;9.834;2023-06-05T01:33:07;14.70;70.50
75824;DHT22;64457;51.976;9.834;2023-06-05T01:35:39;14.60;71.70
75824;DHT22;64457;51.976;9.834;2023-06-05T01:38:11;14.60;71.00
75824;DHT22;64457;51.976;9.834;2023-06-05T01:40:45;14.60;72.20
75824;DHT22;64457;51.976;9.834;2023-06-05T01:43:15;14.50;72.10
75824;DHT22;64457;51.976;9.834;2023-06-05T01:45:43;14.50;71.50
75824;DHT22;64457;51.976;9.834;2023-06-05T01:48:11;14.40;72.50
75824;DHT22;64457;51.976;9.834;2023-06-05T01:50:39;14.40;73.50
75824;DHT22;64457;51.976;9.834;2023-06-05T01:53:12;14.30;73.10
75824;DHT22;64457;51.976;9.834;2023-06-05T01:55:39;14.30;73.20
75824;DHT22;64457;51.976;9.834;2023-06-05T01:58:09;14.30;72.70
75824;DHT22;64457;51.976;9.834;2023-06-05T02:00:38;14.30;73.80
75824;DHT22;64457;51.976;9.834;2023-06-05T02:03:06;14.30;73.40
75824;DHT22;64457;51.976;9.834;2023-06-05T02:05:36;14.30;73.30
75824;DHT22;64457;51.976;9.834;2023-06-05T02:08:04;14.20;74.00
75824;DHT22;64457;51.976;9.834;2023-06-05T02:10:36;14.20;75.10
75824;DHT22;64457;51.976;9.834;2023-06-05T02:13:10;14.10;76.50
75824;DHT22;64457;51.976;9.834;2023-06-05T02:15:38;14.10;75.20
75824;DHT22;64457;51.976;9.834;2023-06-05T02:18:07;14.10;76.40
75824;DHT22;64457;51.976;9.834;2023-06-05T02:20:34;14.10;75.50
75824;DHT22;64457;51.976;9.834;2023-06-05T02:23:02;14.20;75.30
75824;DHT22;64457;51.976;9.834;2023-06-05T02:25:32;14.10;75.70
75824;DHT22;64457;51.976;9.834;2023-06-05T02:28:00;14.10;75.70
75824;DHT22;64457;51.976;9.834;2023-06-05T02:30:29;14.00;76.30
75824;DHT22;64457;51.976;9.834;2023-06-05T02:32:58;13.90;77.80
75824;DHT22;64457;51.976;9.834;2023-06-05T02:35:27;14.00;77.80
75824;DHT22;64457;51.976;9.834;2023-06-05T02:37:55;13.80;78.40
75824;DHT22;64457;51.976;9.834;2023-06-05T02:40:33;13.80;78.30
75824;DHT22;64457;51.976;9.834;2023-06-05T02:43:00;13.80;78.70
75824;DHT22;64457;51.976;9.834;2023-06-05T02:45:36;13.70;78.70
75824;DHT22;64457;51.976;9.834;2023-06-05T02:48:14;13.80;78.50
75824;DHT22;64457;51.976;9.834;2023-06-05T02:50:43;13.80;78.70
75824;DHT22;64457;51.976;9.834;2023-06-05T02:53:12;13.80;78.80
75824;DHT22;64457;51.976;9.834;2023-06-05T02:55:41;13.80;78.80
75824;DHT22;64457;51.976;9.834;2023-06-05T02:58:10;13.80;79.00
75824;DHT22;64457;51.976;9.834;2023-06-05T03:00:40;13.80;78.90
75824;DHT22;64457;51.976;9.834;2023-06-05T03:03:07;13.80;78.50
75824;DHT22;64457;51.976;9.834;2023-06-05T03:05:37;13.80;78.30
75824;DHT22;64457;51.976;9.834;2023-06-05T03:08:06;13.80;78.60
75824;DHT22;64457;51.976;9.834;2023-06-05T03:10:35;13.90;78.50
75824;DHT22;64457;51.976;9.834;2023-06-05T03:13:02;13.70;78.70
75824;DHT22;64457;51.976;9.834;2023-06-05T03:15:30;13.70;80.50
75824;DHT22;64457;51.976;9.834;2023-06-05T03:17:59;13.60;80.00
75824;DHT22;64457;51.976;9.834;2023-06-05T03:20:27;13.70;79.80
75824;DHT22;64457;51.976;9.834;2023-06-05T03:22:56;13.60;79.00
75824;DHT22;64457;51.976;9.834;2023-06-05T03:25:24;13.60;80.00
75824;DHT22;64457;51.976;9.834;2023-06-05T03:27:54;13.60;80.90
75824;DHT22;64457;51.976;9.834;2023-06-05T03:30:21;13.60;80.40
75824;DHT22;64457;51.976;9.834;2023-06-05T03:32:50;13.60;80.70
75824;DHT22;64457;51.976;9.834;2023-06-05T03:35:19;13.60;81.20
75824;DHT22;64457;51.976;9.834;2023-06-05T03:37:47;13.70;81.10
75824;DHT22;64457;51.976;9.834;2023-06-05T03:40:15;13.70;80.20
75824;DHT22;64457;51.976;9.834;2023-06-05T03:42:42;13.70;80.40
75824;DHT22;64457;51.976;9.834;2023-06-05T03:45:10;13.60;82.00
75824;DHT22;64457;51.976;9.834;2023-06-05T03:47:40;13.70;81.90
75824;DHT22;64457;51.976;9.834;2023-06-05T03:50:11;13.70;81.00
75824;DHT22;64457;51.976;9.834;2023-06-05T03:52:40;13.70;81.90
75824;DHT22;64457;51.976;9.834;2023-06-05T03:55:09;13.70;81.70
75824;DHT22;64457;51.976;9.834;2023-06-05T03:57:37;13.80;81.50
75824;DHT22;64457;51.976;9.834;2023-06-05T04:00:07;13.80;80.80
75824;DHT22;64457;51.976;9.834;2023-06-05T04:02:37;13.80;81.50
75824;DHT22;64457;51.976;9.834;2023-06-05T04:05:07;13.90;82.00
75824;DHT22;64457;51.976;9.834;2023-06-05T04:07:40;14.00;82.10
75824;DHT22;64457;51.976;9.834;2023-06-05T04:10:08;14.00;81.40
75824;DHT22;64457;51.976;9.834;2023-06-05T04:12:38;14.10;81.90
75824;DHT22;64457;51.976;9.834;2023-06-05T04:15:07;14.10;80.90
75824;DHT22;64457;51.976;9.834;2023-06-05T04:17:37;14.10;81.30
75824;DHT22;64457;51.976;9.834;2023-06-05T04:20:07;14.10;81.10
75824;DHT22;64457;51.976;9.834;2023-06-05T04:22:36;14.10;81.90
75824;DHT22;64457;51.976;9.834;2023-06-05T04:25:08;14.10;82.20
75824;DHT22;64457;51.976;9.834;2023-06-05T04:27:38;14.10;82.90
75824;DHT22;64457;51.976;9.834;2023-06-05T04:30:08;14.30;82.10
75824;DHT22;64457;51.976;9.834;2023-06-05T04:32:37;14.30;81.80
75824;DHT22;64457;51.976;9.834;2023-06-05T04:35:06;14.40;81.30
75824;DHT22;64457;51.976;9.834;2023-06-05T04:37:35;14.40;82.40
75824;DHT22;64457;51.976;9.834;2023-06-05T04:40:06;14.40;83.20
75824;DHT22;64457;51.976;9.834;2023-06-05T04:42:36;14.30;84.10
75824;DHT22;64457;51.976;9.834;2023-06-05T04:45:05;14.40;84.40
75824;DHT22;64457;51.976;9.834;2023-06-05T04:47:34;14.40;84.30
75824;DHT22;64457;51.976;9.834;2023-06-05T04:50:05;14.50;81.40
75824;DHT22;64457;51.976;9.834;2023-06-05T04:52:35;14.60;82.10
75824;DHT22;64457;51.976;9.834;2023-06-05T04:55:08;14.70;81.70
75824;DHT22;64457;51.976;9.834;2023-06-05T04:57:37;14.80;81.40
75824;DHT22;64457;51.976;9.834;2023-06-05T05:00:07;14.80;81.00
75824;DHT22;64457;51.976;9.834;2023-06-05T05:02:37;14.80;79.80
75824;DHT22;64457;51.976;9.834;2023-06-05T05:05:05;15.00;80.70
75824;DHT22;64457;51.976;9.834;2023-06-05T05:07:34;15.10;80.90
75824;DHT22;64457;51.976;9.834;2023-06-05T05:10:03;15.10;81.00
75824;DHT22;64457;51.976;9.834;2023-06-05T05:12:35;14.90;81.30
75824;DHT22;64457;51.976;9.834;2023-06-05T05:15:04;14.70;82.70
75824;DHT22;64457;51.976;9.834;2023-06-05T05:17:33;14.50;84.00
75824;DHT22;64457;51.976;9.834;2023-06-05T05:20:01;14.40;85.40
75824;DHT22;64457;51.976;9.834;2023-06-05T05:22:33;14.40;87.00
75824;DHT22;64457;51.976;9.834;2023-06-05T05:25:01;14.40;87.70
75824;DHT22;64457;51.976;9.834;2023-06-05T05:27:29;14.60;88.40
75824;DHT22;64457;51.976;9.834;2023-06-05T05:29:58;14.90;88.00
75824;DHT22;64457;51.976;9.834;2023-06-05T05:32:26;15.50;86.40
75824;DHT22;64457;51.976;9.834;2023-06-05T05:34:53;16.10;84.80
75824;DHT22;64457;51.976;9.834;2023-06-05T05:37:21;16.50;81.80
75824;DHT22;64457;51.976;9.834;2023-06-05T05:39:50;17.00;81.30
75824;DHT22;64457;51.976;9.834;2023-06-05T05:42:17;18.20;77.90
75824;DHT22;64457;51.976;9.834;2023-06-05T05:44:45;20.60;71.30
75824;DHT22;64457;51.976;9.834;2023-06-05T05:47:14;22.90;64.40
75824;DHT22;64457;51.976;9.834;2023-06-05T05:49:42;24.90;59.30
75824;DHT22;64457;51.976;9.834;2023-06-05T05:52:09;26.40;55.40
75824;DHT22;64457;51.976;9.834;2023-06-05T05:54:37;27.10;52.50
75824;DHT22;64457;51.976;9.834;2023-06-05T05:57:05;26.60;51.00
75824;DHT22;64457;51.976;9.834;2023-06-05T05:59:33;25.40;53.30
75824;DHT22;64457;51.976;9.834;2023-06-05T06:02:00;24.60;55.70
75824;DHT22;64457;51.976;9.834;2023-06-05T06:04:35;25.50;54.50
75824;DHT22;64457;51.976;9.834;2023-06-05T06:07:04;27.10;51.90
75824;DHT22;64457;51.976;9.834;2023-06-05T06:09:32;28.20;49.90
75824;DHT22;64457;51.976;9.834;2023-06-05T06:11:59;29.60;47.40
75824;DHT22;64457;51.976;9.834;2023-06-05T06:14:31;30.70;46.60
75824;DHT22;64457;51.976;9.834;2023-06-05T06:16:59;32.00;43.40
75824;DHT22;64457;51.976;9.834;2023-06-05T06:19:28;32.50;42.60
75824;DHT22;64457;51.976;9.834;2023-06-05T06:22:01;32.90;41.30
75824;DHT22;64457;51.976;9.834;2023-06-05T06:24:28;33.20;41.30
75824;DHT22;64457;51.976;9.834;2023-06-05T06:26:56;33.50;41.10
75824;DHT22;64457;51.976;9.834;2023-06-05T06:29:24;34.00;40.10
75824;DHT22;64457;51.976;9.834;2023-06-05T06:31:54;34.40;39.10
75824;DHT22;64457;51.976;9.834;2023-06-05T06:34:22;34.90;39.10
75824;DHT22;64457;51.976;9.834;2023-06-05T06:36:52;34.80;38.80
75824;DHT22;64457;51.976;9.834;2023-06-05T06:39:21;35.00;39.40
75824;DHT22;64457;51.976;9.834;2023-06-05T06:41:50;35.20;38.00
75824;DHT22;64457;51.976;9.834;2023-06-05T06:44:20;35.00;38.70
75824;DHT22;64457;51.976;9.834;2023-06-05T06:46:48;35.10;38.60
75824;DHT22;64457;51.976;9.834;2023-06-05T06:49:16;35.20;37.50
75824;DHT22;64457;51.976;9.834;2023-06-05T06:51:43;35.30;37.50
75824;DHT22;64457;51.976;9.834;2023-06-05T06:54:12;34.80;38.00
75824;DHT22;64457;51.976;9.834;2023-06-05T06:56:41;34.40;38.80
75824;DHT22;64457;51.976;9.834;2023-06-05T06:59:11;34.80;37.10
75824;DHT22;64457;51.976;9.834;2023-06-05T07:01:42;34.80;38.60
75824;DHT22;64457;51.976;9.834;2023-06-05T07:04:11;34.30;38.50
75824;DHT22;64457;51.976;9.834;2023-06-05T07:06:43;34.70;38.20
75824;DHT22;64457;51.976;9.834;2023-06-05T07:09:11;35.40;37.70
75824;DHT22;64457;51.976;9.834;2023-06-05T07:11:40;35.70;37.40
75824;DHT22;64457;51.976;9.834;2023-06-05T07:14:08;35.80;37.10
75824;DHT22;64457;51.976;9.834;2023-06-05T07:16:36;35.70;36.70
75824;DHT22;64457;51.976;9.834;2023-06-05T07:19:06;35.90;37.00
75824;DHT22;64457;51.976;9.834;2023-06-05T07:21:34;35.90;35.80
75824;DHT22;64457;51.976;9.834;2023-06-05T07:24:05;36.30;36.30
75824;DHT22;64457;51.976;9.834;2023-06-05T07:26:33;36.40;34.90
75824;DHT22;64457;51.976;9.834;2023-06-05T07:29:03;36.50;35.00
75824;DHT22;64457;51.976;9.834;2023-06-05T07:31:30;36.40;35.30
75824;DHT22;64457;51.976;9.834;2023-06-05T07:33:59;36.20;36.40
75824;DHT22;64457;51.976;9.834;2023-06-05T07:36:26;36.60;36.10
75824;DHT22;64457;51.976;9.834;2023-06-05T07:38:54;37.50;35.70
75824;DHT22;64457;51.976;9.834;2023-06-05T07:41:23;38.10;34.20
75824;DHT22;64457;51.976;9.834;2023-06-05T07:43:52;37.80;33.90
75824;DHT22;64457;51.976;9.834;2023-06-05T07:46:23;37.90;35.00
75824;DHT22;64457;51.976;9.834;2023-06-05T07:48:51;38.00;35.00
75824;DHT22;64457;51.976;9.834;2023-06-05T07:51:19;38.10;34.40
75824;DHT22;64457;51.976;9.834;2023-06-05T07:53:46;38.30;33.80
75824;DHT22;64457;51.976;9.834;2023-06-05T07:56:13;38.60;32.90
75824;DHT22;64457;51.976;9.834;2023-06-05T07:58:43;38.60;33.50
75824;DHT22;64457;51.976;9.834;2023-06-05T08:01:10;38.40;33.40
75824;DHT22;64457;51.976;9.834;2023-06-05T08:03:42;38.80;32.90
75824;DHT22;64457;51.976;9.834;2023-06-05T08:06:10;39.00;32.80
75824;DHT22;64457;51.976;9.834;2023-06-05T08:08:38;39.10;32.70
75824;DHT22;64457;51.976;9.834;2023-06-05T08:11:07;39.20;32.00
75824;DHT22;64457;51.976;9.834;2023-06-05T08:13:37;39.10;32.40
75824;DHT22;64457;51.976;9.834;2023-06-05T08:16:05;38.90;32.90
75824;DHT22;64457;51.976;9.834;2023-06-05T08:18:33;39.20;31.80
75824;DHT22;64457;51.976;9.834;2023-06-05T08:21:03;39.00;33.00
75824;DHT22;64457;51.976;9.834;2023-06-05T08:23:31;39.30;32.50
75824;DHT22;64457;51.976;9.834;2023-06-05T08:25:59;39.60;32.00
75824;DHT22;64457;51.976;9.834;2023-06-05T08:28:27;39.90;31.80
75824;DHT22;64457;51.976;9.834;2023-06-05T08:30:56;39.60;31.20
75824;DHT22;64457;51.976;9.834;2023-06-05T08:33:25;40.20;31.00
75824;DHT22;64457;51.976;9.834;2023-06-05T08:35:52;40.30;30.40
75824;DHT22;64457;51.976;9.834;2023-06-05T08:38:22;40.00;31.10
75824;DHT22;64457;51.976;9.834;2023-06-05T08:40:53;39.70;31.80
75824;DHT22;64457;51.976;9.834;2023-06-05T08:43:24;38.40;33.50
75824;DHT22;64457;51.976;9.834;2023-06-05T08:45:54;38.10;33.90
75824;DHT22;64457;51.976;9.834;2023-06-05T08:48:24;38.30;33.70
75824;DHT22;64457;51.976;9.834;2023-06-05T08:50:54;38.30;33.00
75824;DHT22;64457;51.976;9.834;2023-06-05T08:53:25;38.20;34.00
75824;DHT22;64457;51.976;9.834;2023-06-05T08:55:56;38.20;33.90
75824;DHT22;64457;51.976;9.834;2023-06-05T08:58:24;38.40;33.50
75824;DHT22;64457;51.976;9.834;2023-06-05T09:00:52;38.30;33.20
75824;DHT22;64457;51.976;9.834;2023-06-05T09:03:20;38.20;34.40
75824;DHT22;64457;51.976;9.834;2023-06-05T09:05:48;38.50;33.00
75824;DHT22;64457;51.976;9.834;2023-06-05T09:08:17;38.70;33.60
75824;DHT22;64457;51.976;9.834;2023-06-05T09:10:48;38.20;33.80
75824;DHT22;64457;51.976;9.834;2023-06-05T09:13:15;37.40;34.50
75824;DHT22;64457;51.976;9.834;2023-06-05T09:15:50;36.60;35.70
75824;DHT22;64457;51.976;9.834;2023-06-05T09:18:18;35.30;37.70
75824;DHT22;64457;51.976;9.834;2023-06-05T09:20:46;34.20;38.40
75824;DHT22;64457;51.976;9.834;2023-06-05T09:23:23;33.60;40.40
75824;DHT22;64457;51.976;9.834;2023-06-05T09:25:55;32.50;41.30
75824;DHT22;64457;51.976;9.834;2023-06-05T09:28:25;31.80;41.60
75824;DHT22;64457;51.976;9.834;2023-06-05T09:30:58;31.60;40.90
75824;DHT22;64457;51.976;9.834;2023-06-05T09:33:27;31.40;39.70
75824;DHT22;64457;51.976;9.834;2023-06-05T09:36:04;31.20;41.80
75824;DHT22;64457;51.976;9.834;2023-06-05T09:38:33;30.30;41.50
75824;DHT22;64457;51.976;9.834;2023-06-05T09:41:05;29.80;42.90
75824;DHT22;64457;51.976;9.834;2023-06-05T09:43:33;29.50;43.30
75824;DHT22;64457;51.976;9.834;2023-06-05T09:46:06;29.30;39.10
75824;DHT22;64457;51.976;9.834;2023-06-05T09:48:36;29.00;40.30
75824;DHT22;64457;51.976;9.834;2023-06-05T09:51:12;28.70;38.90
75824;DHT22;64457;51.976;9.834;2023-06-05T09:53:44;27.60;38.60
75824;DHT22;64457;51.976;9.834;2023-06-05T09:56:18;27.30;41.00
75824;DHT22;64457;51.976;9.834;2023-06-05T09:58:47;27.20;42.40
75824;DHT22;64457;51.976;9.834;2023-06-05T10:01:17;27.10;43.10
75824;DHT22;64457;51.976;9.834;2023-06-05T10:03:52;27.60;42.40
75824;DHT22;64457;51.976;9.834;2023-06-05T10:06:26;27.90;41.30
75824;DHT22;64457;51.976;9.834;2023-06-05T10:08:56;27.50;40.00
75824;DHT22;64457;51.976;9.834;2023-06-05T10:11:27;27.70;40.00
75824;DHT22;64457;51.976;9.834;2023-06-05T10:13:56;28.30;40.20
75824;DHT22;64457;51.976;9.834;2023-06-05T10:16:26;28.50;39.60
75824;DHT22;64457;51.976;9.834;2023-06-05T10:18:56;29.00;38.10
75824;DHT22;64457;51.976;9.834;2023-06-05T10:21:25;29.30;36.80
75824;DHT22;64457;51.976;9.834;2023-06-05T10:23:58;29.10;37.30
75824;DHT22;64457;51.976;9.834;2023-06-05T10:32:58;27.90;38.70
75824;DHT22;64457;51.976;9.834;2023-06-05T10:35:42;28.30;39.80
75824;DHT22;64457;51.976;9.834;2023-06-05T10:38:17;28.60;39.00
75824;DHT22;64457;51.976;9.834;2023-06-05T10:40:48;28.60;38.00
75824;DHT22;64457;51.976;9.834;2023-06-05T10:43:26;28.70;39.00
75824;DHT22;64457;51.976;9.834;2023-06-05T10:45:56;28.30;38.80
75824;DHT22;64457;51.976;9.834;2023-06-05T10:51:34;27.90;40.20
75824;DHT22;64457;51.976;9.834;2023-06-05T10:54:04;28.70;39.70
75824;DHT22;64457;51.976;9.834;2023-06-05T10:56:58;29.10;38.40
75824;DHT22;64457;51.976;9.834;2023-06-05T10:59:30;29.00;38.50
75824;DHT22;64457;51.976;9.834;2023-06-05T11:02:23;28.70;37.40
75824;DHT22;64457;51.976;9.834;2023-06-05T11:05:19;28.30;39.90
75824;DHT22;64457;51.976;9.834;2023-06-05T11:07:48;28.00;38.80
75824;DHT22;64457;51.976;9.834;2023-06-05T11:11:04;27.20;38.40
75824;DHT22;64457;51.976;9.834;2023-06-05T11:13:54;26.80;40.10
75824;DHT22;64457;51.976;9.834;2023-06-05T11:16:31;27.10;39.10
75824;DHT22;64457;51.976;9.834;2023-06-05T11:19:36;27.40;39.30
75824;DHT22;64457;51.976;9.834;2023-06-05T11:22:07;27.50;39.70
75824;DHT22;64457;51.976;9.834;2023-06-05T11:24:40;27.80;38.80
75824;DHT22;64457;51.976;9.834;2023-06-05T11:30:18;27.80;39.60
75824;DHT22;64457;51.976;9.834;2023-06-05T11:32:48;27.80;38.80
75824;DHT22;64457;51.976;9.834;2023-06-05T11:35:21;27.50;35.40
75824;DHT22;64457;51.976;9.834;2023-06-05T11:38:06;27.70;38.60
75824;DHT22;64457;51.976;9.834;2023-06-05T11:40:35;28.20;37.60
75824;DHT22;64457;51.976;9.834;2023-06-05T11:43:05;27.40;34.80
75824;DHT22;64457;51.976;9.834;2023-06-05T11:45:35;27.40;37.00
75824;DHT22;64457;51.976;9.834;2023-06-05T11:48:06;27.40;37.20
75824;DHT22;64457;51.976;9.834;2023-06-05T11:50:35;27.20;38.60
75824;DHT22;64457;51.976;9.834;2023-06-05T11:53:04;27.70;36.70
75824;DHT22;64457;51.976;9.834;2023-06-05T11:55:34;27.70;35.60
75824;DHT22;64457;51.976;9.834;2023-06-05T11:58:21;27.70;37.40
75824;DHT22;64457;51.976;9.834;2023-06-05T12:00:49;27.90;35.80
75824;DHT22;64457;51.976;9.834;2023-06-05T12:03:19;28.40;37.00
75824;DHT22;64457;51.976;9.834;2023-06-05T12:05:49;28.70;35.50
75824;DHT22;64457;51.976;9.834;2023-06-05T12:08:23;28.50;36.10
75824;DHT22;64457;51.976;9.834;2023-06-05T12:10:56;28.30;34.40
75824;DHT22;64457;51.976;9.834;2023-06-05T12:13:44;28.30;36.00
75824;DHT22;64457;51.976;9.834;2023-06-05T12:16:13;28.30;36.00
75824;DHT22;64457;51.976;9.834;2023-06-05T12:18:43;28.00;36.40
75824;DHT22;64457;51.976;9.834;2023-06-05T12:21:21;28.30;36.50
75824;DHT22;64457;51.976;9.834;2023-06-05T12:23:50;28.40;36.80
75824;DHT22;64457;51.976;9.834;2023-06-05T12:26:20;28.80;36.20
75824;DHT22;64457;51.976;9.834;2023-06-05T12:29:02;29.00;35.70
75824;DHT22;64457;51.976;9.834;2023-06-05T12:31:35;28.70;35.30
75824;DHT22;64457;51.976;9.834;2023-06-05T12:34:07;28.80;36.00
75824;DHT22;64457;51.976;9.834;2023-06-05T12:36:39;29.20;34.40
75824;DHT22;64457;51.976;9.834;2023-06-05T12:39:10;28.80;34.10
75824;DHT22;64457;51.976;9.834;2023-06-05T12:41:39;28.50;34.30
75824;DHT22;64457;51.976;9.834;2023-06-05T12:44:10;28.50;34.20
75824;DHT22;64457;51.976;9.834;2023-06-05T12:46:37;28.40;36.70
75824;DHT22;64457;51.976;9.834;2023-06-05T12:49:07;28.80;37.60
75824;DHT22;64457;51.976;9.834;2023-06-05T12:51:38;29.10;36.20
75824;DHT22;64457;51.976;9.834;2023-06-05T12:54:07;28.50;36.30
75824;DHT22;64457;51.976;9.834;2023-06-05T12:56:36;28.20;36.20
75824;DHT22;64457;51.976;9.834;2023-06-05T12:59:04;28.20;35.20
75824;DHT22;64457;51.976;9.834;2023-06-05T13:01:32;28.10;36.20
75824;DHT22;64457;51.976;9.834;2023-06-05T13:04:02;28.20;36.10
75824;DHT22;64457;51.976;9.834;2023-06-05T13:06:32;28.60;37.50
75824;DHT22;64457;51.976;9.834;2023-06-05T13:09:01;28.20;35.00
75824;DHT22;64457;51.976;9.834;2023-06-05T13:11:30;28.30;38.20
75824;DHT22;64457;51.976;9.834;2023-06-05T13:13:59;28.50;36.70
75824;DHT22;64457;51.976;9.834;2023-06-05T13:16:27;28.90;36.50
75824;DHT22;64457;51.976;9.834;2023-06-05T13:18:56;28.60;34.50
75824;DHT22;64457;51.976;9.834;2023-06-05T13:21:23;28.40;35.20
75824;DHT22;64457;51.976;9.834;2023-06-05T13:23:56;28.20;35.40
75824;DHT22;64457;51.976;9.834;2023-06-05T13:26:23;28.10;35.80
75824;DHT22;64457;51.976;9.834;2023-06-05T13:28:51;28.40;36.80
75824;DHT22;64457;51.976;9.834;2023-06-05T13:31:25;28.50;37.00
75824;DHT22;64457;51.976;9.834;2023-06-05T13:33:54;28.70;34.40
75824;DHT22;64457;51.976;9.834;2023-06-05T13:36:22;28.90;34.40
75824;DHT22;64457;51.976;9.834;2023-06-05T13:38:50;29.00;37.30
75824;DHT22;64457;51.976;9.834;2023-06-05T13:41:20;29.10;35.80
75824;DHT22;64457;51.976;9.834;2023-06-05T13:43:48;29.00;35.10
75824;DHT22;64457;51.976;9.834;2023-06-05T13:46:16;28.60;34.80
75824;DHT22;64457;51.976;9.834;2023-06-05T13:48:45;28.60;36.30
75824;DHT22;64457;51.976;9.834;2023-06-05T13:51:13;28.70;34.90
75824;DHT22;64457;51.976;9.834;2023-06-05T13:53:41;29.00;37.60
75824;DHT22;64457;51.976;9.834;2023-06-05T13:56:10;29.20;34.70
75824;DHT22;64457;51.976;9.834;2023-06-05T13:58:41;29.10;36.40
75824;DHT22;64457;51.976;9.834;2023-06-05T14:01:09;29.20;34.40
75824;DHT22;64457;51.976;9.834;2023-06-05T14:03:36;29.00;35.80
75824;DHT22;64457;51.976;9.834;2023-06-05T14:06:05;28.70;37.30
75824;DHT22;64457;51.976;9.834;2023-06-05T14:08:33;29.00;34.80
75824;DHT22;64457;51.976;9.834;2023-06-05T14:11:04;28.90;34.80
75824;DHT22;64457;51.976;9.834;2023-06-05T14:13:34;28.70;35.50
75824;DHT22;64457;51.976;9.834;2023-06-05T14:16:18;28.50;35.10
75824;DHT22;64457;51.976;9.834;2023-06-05T14:18:46;28.40;37.30
75824;DHT22;64457;51.976;9.834;2023-06-05T14:21:14;28.30;34.90
75824;DHT22;64457;51.976;9.834;2023-06-05T14:23:42;28.60;35.30
75824;DHT22;64457;51.976;9.834;2023-06-05T14:26:11;28.80;34.10
75824;DHT22;64457;51.976;9.834;2023-06-05T14:28:41;28.60;35.20
75824;DHT22;64457;51.976;9.834;2023-06-05T14:31:09;28.70;35.90
75824;DHT22;64457;51.976;9.834;2023-06-05T14:33:40;28.80;36.70
75824;DHT22;64457;51.976;9.834;2023-06-05T14:36:07;29.10;35.20
75824;DHT22;64457;51.976;9.834;2023-06-05T14:38:35;29.00;34.40
75824;DHT22;64457;51.976;9.834;2023-06-05T14:41:04;28.60;33.40
75824;DHT22;64457;51.976;9.834;2023-06-05T14:43:32;28.50;35.10
75824;DHT22;64457;51.976;9.834;2023-06-05T14:46:00;28.50;33.70
75824;DHT22;64457;51.976;9.834;2023-06-05T14:48:28;28.30;36.60
75824;DHT22;64457;51.976;9.834;2023-06-05T14:50:58;28.50;35.50
75824;DHT22;64457;51.976;9.834;2023-06-05T14:53:27;28.90;35.90
75824;DHT22;64457;51.976;9.834;2023-06-05T14:55:54;29.00;34.20
75824;DHT22;64457;51.976;9.834;2023-06-05T14:58:22;28.90;34.10
75824;DHT22;64457;51.976;9.834;2023-06-05T15:00:50;28.40;35.50
75824;DHT22;64457;51.976;9.834;2023-06-05T15:03:24;28.50;35.00
75824;DHT22;64457;51.976;9.834;2023-06-05T15:05:53;28.30;34.20
75824;DHT22;64457;51.976;9.834;2023-06-05T15:08:22;28.00;36.30
75824;DHT22;64457;51.976;9.834;2023-06-05T15:10:50;28.30;35.80
75824;DHT22;64457;51.976;9.834;2023-06-05T15:13:18;28.20;34.90
75824;DHT22;64457;51.976;9.834;2023-06-05T15:15:46;28.60;34.30
75824;DHT22;64457;51.976;9.834;2023-06-05T15:18:19;28.90;34.80
75824;DHT22;64457;51.976;9.834;2023-06-05T15:20:48;29.30;35.60
75824;DHT22;64457;51.976;9.834;2023-06-05T15:23:16;29.30;35.30
75824;DHT22;64457;51.976;9.834;2023-06-05T15:25:46;29.30;33.90
75824;DHT22;64457;51.976;9.834;2023-06-05T15:28:14;29.20;34.60
75824;DHT22;64457;51.976;9.834;2023-06-05T15:30:43;29.10;34.80
75824;DHT22;64457;51.976;9.834;2023-06-05T15:33:13;29.00;35.60
75824;DHT22;64457;51.976;9.834;2023-06-05T15:35:41;29.10;34.70
75824;DHT22;64457;51.976;9.834;2023-06-05T15:38:11;28.90;35.00
75824;DHT22;64457;51.976;9.834;2023-06-05T15:40:39;28.90;34.60
75824;DHT22;64457;51.976;9.834;2023-06-05T15:43:10;28.70;34.50
75824;DHT22;64457;51.976;9.834;2023-06-05T15:45:39;28.70;36.80
75824;DHT22;64457;51.976;9.834;2023-06-05T15:48:07;28.70;34.00
75824;DHT22;64457;51.976;9.834;2023-06-05T15:50:35;28.30;34.20
75824;DHT22;64457;51.976;9.834;2023-06-05T15:53:05;28.50;34.80
75824;DHT22;64457;51.976;9.834;2023-06-05T15:55:33;28.80;36.50
75824;DHT22;64457;51.976;9.834;2023-06-05T15:58:04;28.70;35.30
75824;DHT22;64457;51.976;9.834;2023-06-05T16:00:34;28.40;34.70